sensor_id;sensor_type;location;lat;lon;timestamp;pressure;altitude;pressure_sealevel;temperature;humidity
9774;BME280;4926;42.670;23.316;2022-10-26T00:02:29;95051.13;;;16.97;72.13
9774;BME280;4926;42.670;23.316;2022-10-26T00:04:55;95055.69;;;16.96;72.25
9774;BME280;4926;42.670;23.316;2022-10-26T00:07:23;95043.97;;;16.92;72.29
9774;BME280;4926;42.670;23.316;2022-10-26T00:09:49;95043.19;;;16.92;72.25
9774;BME280;4926;42.670;23.316;2022-10-26T00:12:16;95050.63;;;16.86;72.59
9774;BME280;4926;42.670;23.316;2022-10-26T00:14:43;95046.19;;;16.90;72.22
9774;BME280;4926;42.670;23.316;2022-10-26T00:17:10;95039.22;;;16.89;72.27
9774;BME280;4926;42.670;23.316;2022-10-26T00:19:38;95046.50;;;16.89;72.17
9774;BME280;4926;42.670;23.316;2022-10-26T00:22:05;95042.22;;;16.88;72.31
9774;BME280;4926;42.670;23.316;2022-10-26T00:24:32;95045.06;;;16.83;72.71
9774;BME280;4926;42.670;23.316;2022-10-26T00:26:59;95048.53;;;16.83;72.50
9774;BME280;4926;42.670;23.316;2022-10-26T00:29:28;95051.06;;;16.80;72.62
9774;BME280;4926;42.670;23.316;2022-10-26T00:31:57;95047.75;;;16.74;72.71
9774;BME280;4926;42.670;23.316;2022-10-26T00:34:24;95048.34;;;16.71;72.93
9774;BME280;4926;42.670;23.316;2022-10-26T00:36:52;95046.94;;;16.73;72.70
9774;BME280;4926;42.670;23.316;2022-10-26T00:39:19;95042.22;;;16.70;73.02
9774;BME280;4926;42.670;23.316;2022-10-26T00:41:46;95047.59;;;16.70;73.14
9774;BME280;4926;42.670;23.316;2022-10-26T00:47:19;95037.44;;;16.67;73.49
9774;BME280;4926;42.670;23.316;2022-10-26T00:49:50;95038.69;;;16.61;73.73
9774;BME280;4926;42.670;23.316;2022-10-26T00:52:22;95034.88;;;16.62;73.37
9774;BME280;4926;42.670;23.316;2022-10-26T00:54:50;95031.56;;;16.57;73.43
9774;BME280;4926;42.670;23.316;2022-10-26T00:57:18;95024.78;;;16.59;73.30
9774;BME280;4926;42.670;23.316;2022-10-26T00:59:46;95026.34;;;16.60;73.19
9774;BME280;4926;42.670;23.316;2022-10-26T01:02:13;95023.16;;;16.58;73.18
9774;BME280;4926;42.670;23.316;2022-10-26T01:04:39;95022.88;;;16.60;73.27
9774;BME280;4926;42.670;23.316;2022-10-26T01:07:07;95017.69;;;16.63;73.30
9774;BME280;4926;42.670;23.316;2022-10-26T01:09:39;95010.84;;;16.57;73.52
9774;BME280;4926;42.670;23.316;2022-10-26T01:12:06;95015.59;;;16.60;73.83
9774;BME280;4926;42.670;23.316;2022-10-26T01:14:33;95011.19;;;16.64;73.74
9774;BME280;4926;42.670;23.316;2022-10-26T01:17:13;95010.69;;;16.62;73.67
9774;BME280;4926;42.670;23.316;2022-10-26T01:23:03;95007.34;;;16.57;73.74
9774;BME280;4926;42.670;23.316;2022-10-26T01:26:02;95023.78;;;16.47;73.66
9774;BME280;4926;42.670;23.316;2022-10-26T01:28:43;95012.72;;;16.48;74.00
9774;BME280;4926;42.670;23.316;2022-10-26T01:31:18;95021.56;;;16.49;74.20
9774;BME280;4926;42.670;23.316;2022-10-26T01:33:51;95018.09;;;16.48;74.35
9774;BME280;4926;42.670;23.316;2022-10-26T01:36:28;95017.41;;;16.43;74.44
9774;BME280;4926;42.670;23.316;2022-10-26T01:39:01;95008.22;;;16.35;74.92
9774;BME280;4926;42.670;23.316;2022-10-26T01:41:36;95009.47;;;16.29;75.01
9774;BME280;4926;42.670;23.316;2022-10-26T01:44:07;95003.13;;;16.25;75.00
9774;BME280;4926;42.670;23.316;2022-10-26T01:46:42;94998.56;;;16.26;74.77
9774;BME280;4926;42.670;23.316;2022-10-26T01:49:11;94993.97;;;16.26;74.54
9774;BME280;4926;42.670;23.316;2022-10-26T01:51:41;94994.28;;;16.25;74.45
9774;BME280;4926;42.670;23.316;2022-10-26T01:54:08;94989.41;;;16.27;74.37
9774;BME280;4926;42.670;23.316;2022-10-26T01:56:38;94990.63;;;16.21;74.55
9774;BME280;4926;42.670;23.316;2022-10-26T01:59:18;94993.63;;;16.19;74.58
9774;BME280;4926;42.670;23.316;2022-10-26T02:07:52;94995.16;;;16.03;75.92
9774;BME280;4926;42.670;23.316;2022-10-26T02:10:29;94984.72;;;16.02;75.83
9774;BME280;4926;42.670;23.316;2022-10-26T02:13:02;94987.72;;;16.00;75.96
9774;BME280;4926;42.670;23.316;2022-10-26T02:15:42;94983.91;;;16.01;76.13
9774;BME280;4926;42.670;23.316;2022-10-26T02:18:22;94995.16;;;16.03;76.17
9774;BME280;4926;42.670;23.316;2022-10-26T02:20:55;95001.63;;;16.02;76.18
9774;BME280;4926;42.670;23.316;2022-10-26T02:23:25;94993.56;;;16.02;76.40
9774;BME280;4926;42.670;23.316;2022-10-26T02:25:55;94998.59;;;15.95;76.69
9774;BME280;4926;42.670;23.316;2022-10-26T02:28:29;94995.25;;;15.90;77.32
9774;BME280;4926;42.670;23.316;2022-10-26T02:31:04;94985.13;;;15.87;77.40
9774;BME280;4926;42.670;23.316;2022-10-26T02:33:37;94988.44;;;15.92;77.82
9774;BME280;4926;42.670;23.316;2022-10-26T02:36:08;94990.06;;;15.93;77.85
9774;BME280;4926;42.670;23.316;2022-10-26T02:38:37;94987.38;;;15.93;78.09
9774;BME280;4926;42.670;23.316;2022-10-26T02:41:07;94982.91;;;15.89;78.48
9774;BME280;4926;42.670;23.316;2022-10-26T02:43:40;94981.34;;;15.88;78.61
9774;BME280;4926;42.670;23.316;2022-10-26T02:46:13;94977.38;;;15.85;79.08
9774;BME280;4926;42.670;23.316;2022-10-26T02:48:43;94993.59;;;15.80;79.75
9774;BME280;4926;42.670;23.316;2022-10-26T02:51:11;94989.00;;;15.72;80.54
9774;BME280;4926;42.670;23.316;2022-10-26T02:53:45;94988.69;;;15.74;81.05
9774;BME280;4926;42.670;23.316;2022-10-26T02:56:18;94990.41;;;15.70;81.50
9774;BME280;4926;42.670;23.316;2022-10-26T02:58:50;94988.03;;;15.68;81.75
9774;BME280;4926;42.670;23.316;2022-10-26T03:01:19;94992.41;;;15.64;82.15
9774;BME280;4926;42.670;23.316;2022-10-26T03:03:47;94997.41;;;15.57;82.80
9774;BME280;4926;42.670;23.316;2022-10-26T03:06:20;94997.41;;;15.57;83.12
9774;BME280;4926;42.670;23.316;2022-10-26T03:08:47;94999.03;;;15.58;83.34
9774;BME280;4926;42.670;23.316;2022-10-26T03:11:14;95000.22;;;15.52;84.26
9774;BME280;4926;42.670;23.316;2022-10-26T03:13:41;95007.78;;;15.50;85.16
9774;BME280;4926;42.670;23.316;2022-10-26T03:16:10;95008.75;;;15.32;86.46
9774;BME280;4926;42.670;23.316;2022-10-26T03:18:40;95010.22;;;15.38;87.80
9774;BME280;4926;42.670;23.316;2022-10-26T03:21:12;95015.56;;;15.38;88.61
9774;BME280;4926;42.670;23.316;2022-10-26T03:23:41;95014.63;;;15.34;89.42
9774;BME280;4926;42.670;23.316;2022-10-26T03:26:08;95028.44;;;15.27;90.55
9774;BME280;4926;42.670;23.316;2022-10-26T03:28:37;95033.22;;;15.30;91.38
9774;BME280;4926;42.670;23.316;2022-10-26T03:31:07;95025.56;;;15.24;92.20
9774;BME280;4926;42.670;23.316;2022-10-26T03:33:33;95031.72;;;15.24;93.46
9774;BME280;4926;42.670;23.316;2022-10-26T03:36:03;95030.50;;;15.08;95.12
9774;BME280;4926;42.670;23.316;2022-10-26T03:38:31;95026.34;;;15.02;96.11
9774;BME280;4926;42.670;23.316;2022-10-26T03:40:58;95037.38;;;15.01;97.19
9774;BME280;4926;42.670;23.316;2022-10-26T03:43:25;95030.53;;;14.95;97.55
9774;BME280;4926;42.670;23.316;2022-10-26T03:45:52;95031.84;;;14.97;98.14
9774;BME280;4926;42.670;23.316;2022-10-26T03:48:19;95035.91;;;14.95;98.42
9774;BME280;4926;42.670;23.316;2022-10-26T03:51:06;95034.44;;;14.89;99.66
9774;BME280;4926;42.670;23.316;2022-10-26T03:53:34;95041.38;;;14.90;99.94
9774;BME280;4926;42.670;23.316;2022-10-26T03:56:01;95032.44;;;14.81;100.00
9774;BME280;4926;42.670;23.316;2022-10-26T03:58:28;95037.22;;;14.84;100.00
9774;BME280;4926;42.670;23.316;2022-10-26T04:00:54;95028.69;;;14.82;100.00
9774;BME280;4926;42.670;23.316;2022-10-26T04:03:21;95026.59;;;14.79;100.00
9774;BME280;4926;42.670;23.316;2022-10-26T04:05:48;95031.28;;;14.73;100.00
9774;BME280;4926;42.670;23.316;2022-10-26T04:08:17;95031.06;;;14.70;100.00
9774;BME280;4926;42.670;23.316;2022-10-26T04:10:46;95035.47;;;14.66;100.00
9774;BME280;4926;42.670;23.316;2022-10-26T04:13:12;95028.00;;;14.63;100.00
9774;BME280;4926;42.670;23.316;2022-10-26T04:15:39;95043.50;;;14.66;100.00
9774;BME280;4926;42.670;23.316;2022-10-26T04:18:13;95034.44;;;14.75;100.00
9774;BME280;4926;42.670;23.316;2022-10-26T04:20:40;95038.81;;;14.85;100.00
9774;BME280;4926;42.670;23.316;2022-10-26T04:23:10;95034.63;;;14.79;100.00
9774;BME280;4926;42.670;23.316;2022-10-26T04:25:40;95035.06;;;14.72;100.00
9774;BME280;4926;42.670;23.316;2022-10-26T04:28:11;95013.44;;;14.55;100.00
9774;BME280;4926;42.670;23.316;2022-10-26T04:30:39;95036.94;;;14.72;100.00
9774;BME280;4926;42.670;23.316;2022-10-26T04:33:07;95030.31;;;14.69;99.92
9774;BME280;4926;42.670;23.316;2022-10-26T04:35:36;95028.41;;;14.70;99.37
9774;BME280;4926;42.670;23.316;2022-10-26T04:38:07;95036.16;;;14.71;99.31
9774;BME280;4926;42.670;23.316;2022-10-26T04:40:34;95038.66;;;14.68;100.00
9774;BME280;4926;42.670;23.316;2022-10-26T04:43:00;95026.44;;;14.62;100.00
9774;BME280;4926;42.670;23.316;2022-10-26T04:45:29;95039.22;;;14.65;100.00
9774;BME280;4926;42.670;23.316;2022-10-26T04:48:01;95035.47;;;14.66;100.00
9774;BME280;4926;42.670;23.316;2022-10-26T04:50:28;95045.59;;;14.69;100.00
9774;BME280;4926;42.670;23.316;2022-10-26T04:52:55;95050.13;;;14.68;100.00
9774;BME280;4926;42.670;23.316;2022-10-26T04:55:24;95051.31;;;14.76;100.00
9774;BME280;4926;42.670;23.316;2022-10-26T04:57:51;95059.38;;;14.76;100.00
9774;BME280;4926;42.670;23.316;2022-10-26T05:00:19;95060.88;;;14.82;100.00
9774;BME280;4926;42.670;23.316;2022-10-26T05:02:47;95059.69;;;14.74;100.00
9774;BME280;4926;42.670;23.316;2022-10-26T05:05:17;95060.06;;;14.81;100.00
9774;BME280;4926;42.670;23.316;2022-10-26T05:07:52;95060.88;;;14.82;100.00
9774;BME280;4926;42.670;23.316;2022-10-26T05:10:19;95065.50;;;14.90;100.00
9774;BME280;4926;42.670;23.316;2022-10-26T05:12:49;95060.44;;;14.88;99.41
9774;BME280;4926;42.670;23.316;2022-10-26T05:15:16;95061.31;;;14.84;100.00
9774;BME280;4926;42.670;23.316;2022-10-26T05:17:43;95059.25;;;14.81;100.00
9774;BME280;4926;42.670;23.316;2022-10-26T05:20:11;95045.34;;;14.79;100.00
9774;BME280;4926;42.670;23.316;2022-10-26T05:22:38;95056.06;;;14.79;100.00
9774;BME280;4926;42.670;23.316;2022-10-26T05:25:08;95057.06;;;14.83;100.00
9774;BME280;4926;42.670;23.316;2022-10-26T05:27:38;95060.56;;;14.83;100.00
9774;BME280;4926;42.670;23.316;2022-10-26T05:30:05;95067.69;;;14.88;100.00
9774;BME280;4926;42.670;23.316;2022-10-26T05:32:33;95071.75;;;14.99;99.75
9774;BME280;4926;42.670;23.316;2022-10-26T05:35:00;95070.41;;;15.10;97.99
9774;BME280;4926;42.670;23.316;2022-10-26T05:37:28;95073.97;;;15.19;97.45
9774;BME280;4926;42.670;23.316;2022-10-26T05:39:55;95084.66;;;15.46;95.45
9774;BME280;4926;42.670;23.316;2022-10-26T05:42:22;95086.06;;;15.66;92.96
9774;BME280;4926;42.670;23.316;2022-10-26T05:44:49;95082.38;;;15.84;91.37
9774;BME280;4926;42.670;23.316;2022-10-26T05:47:16;95085.66;;;16.03;89.66
9774;BME280;4926;42.670;23.316;2022-10-26T05:49:43;95092.19;;;16.10;87.91
9774;BME280;4926;42.670;23.316;2022-10-26T05:52:10;95100.56;;;16.09;87.85
9774;BME280;4926;42.670;23.316;2022-10-26T05:54:38;95104.78;;;16.01;88.71
9774;BME280;4926;42.670;23.316;2022-10-26T05:57:08;95109.06;;;16.02;88.78
9774;BME280;4926;42.670;23.316;2022-10-26T05:59:36;95103.06;;;16.05;88.90
9774;BME280;4926;42.670;23.316;2022-10-26T06:02:13;95102.25;;;16.05;88.16
9774;BME280;4926;42.670;23.316;2022-10-26T06:04:44;95097.56;;;16.10;88.04
9774;BME280;4926;42.670;23.316;2022-10-26T06:07:17;95112.88;;;16.10;88.40
9774;BME280;4926;42.670;23.316;2022-10-26T06:09:47;95122.66;;;16.06;88.37
9774;BME280;4926;42.670;23.316;2022-10-26T06:12:15;95123.78;;;16.13;88.49
9774;BME280;4926;42.670;23.316;2022-10-26T06:14:42;95121.47;;;16.20;89.21
9774;BME280;4926;42.670;23.316;2022-10-26T06:17:35;95124.50;;;16.27;89.08
9774;BME280;4926;42.670;23.316;2022-10-26T06:20:32;95124.13;;;16.42;88.35
9774;BME280;4926;42.670;23.316;2022-10-26T06:23:12;95125.53;;;16.40;87.33
9774;BME280;4926;42.670;23.316;2022-10-26T06:25:51;95123.50;;;16.45;86.25
9774;BME280;4926;42.670;23.316;2022-10-26T06:28:27;95127.19;;;16.49;86.84
9774;BME280;4926;42.670;23.316;2022-10-26T06:31:03;95125.97;;;16.64;86.23
9774;BME280;4926;42.670;23.316;2022-10-26T06:33:30;95134.56;;;16.74;84.42
9774;BME280;4926;42.670;23.316;2022-10-26T06:36:05;95130.59;;;16.63;84.50
9774;BME280;4926;42.670;23.316;2022-10-26T06:38:37;95125.22;;;16.63;84.73
9774;BME280;4926;42.670;23.316;2022-10-26T06:41:13;95130.28;;;16.73;84.11
9774;BME280;4926;42.670;23.316;2022-10-26T06:43:43;95120.22;;;16.88;83.42
9774;BME280;4926;42.670;23.316;2022-10-26T06:49:02;95131.09;;;17.39;80.94
9774;BME280;4926;42.670;23.316;2022-10-26T06:51:37;95128.44;;;17.64;78.65
9774;BME280;4926;42.670;23.316;2022-10-26T06:54:12;95135.56;;;17.95;77.62
9774;BME280;4926;42.670;23.316;2022-10-26T06:56:43;95136.78;;;18.31;75.40
9774;BME280;4926;42.670;23.316;2022-10-26T06:59:15;95126.47;;;18.50;73.81
9774;BME280;4926;42.670;23.316;2022-10-26T07:01:43;95132.06;;;18.74;72.62
9774;BME280;4926;42.670;23.316;2022-10-26T07:04:12;95141.50;;;18.98;72.31
9774;BME280;4926;42.670;23.316;2022-10-26T07:06:39;95140.97;;;19.42;70.27
9774;BME280;4926;42.670;23.316;2022-10-26T07:09:05;95137.69;;;19.57;68.72
9774;BME280;4926;42.670;23.316;2022-10-26T07:11:32;95135.72;;;19.66;67.75
9774;BME280;4926;42.670;23.316;2022-10-26T07:14:00;95137.28;;;19.87;67.94
9774;BME280;4926;42.670;23.316;2022-10-26T07:16:27;95127.75;;;20.43;65.66
9774;BME280;4926;42.670;23.316;2022-10-26T07:18:56;95117.31;;;20.78;63.92
9774;BME280;4926;42.670;23.316;2022-10-26T07:21:27;95108.97;;;21.31;61.93
9774;BME280;4926;42.670;23.316;2022-10-26T07:23:53;95108.91;;;21.79;59.22
9774;BME280;4926;42.670;23.316;2022-10-26T07:26:24;95112.41;;;21.80;59.07
9774;BME280;4926;42.670;23.316;2022-10-26T07:28:51;95082.97;;;21.94;57.96
9774;BME280;4926;42.670;23.316;2022-10-26T07:31:20;95096.38;;;22.58;56.29
9774;BME280;4926;42.670;23.316;2022-10-26T07:33:46;95089.38;;;23.03;54.40
9774;BME280;4926;42.670;23.316;2022-10-26T07:36:13;95083.47;;;23.33;53.48
9774;BME280;4926;42.670;23.316;2022-10-26T07:38:40;95078.44;;;23.69;52.45
9774;BME280;4926;42.670;23.316;2022-10-26T07:41:07;95078.59;;;23.95;51.33
9774;BME280;4926;42.670;23.316;2022-10-26T07:43:33;95072.94;;;24.23;50.71
9774;BME280;4926;42.670;23.316;2022-10-26T07:46:00;95061.28;;;24.64;49.50
9774;BME280;4926;42.670;23.316;2022-10-26T07:48:28;95062.41;;;24.41;49.48
9774;BME280;4926;42.670;23.316;2022-10-26T07:50:55;95069.66;;;24.33;49.49
9774;BME280;4926;42.670;23.316;2022-10-26T07:53:22;95066.53;;;24.54;49.37
9774;BME280;4926;42.670;23.316;2022-10-26T07:55:54;95054.63;;;24.84;48.54
9774;BME280;4926;42.670;23.316;2022-10-26T07:58:21;95054.56;;;24.81;48.65
9774;BME280;4926;42.670;23.316;2022-10-26T08:00:53;95043.47;;;25.15;47.83
9774;BME280;4926;42.670;23.316;2022-10-26T08:03:20;95042.78;;;25.48;47.10
9774;BME280;4926;42.670;23.316;2022-10-26T08:05:50;95046.59;;;25.70;46.00
9774;BME280;4926;42.670;23.316;2022-10-26T08:08:20;95044.75;;;24.99;46.83
9774;BME280;4926;42.670;23.316;2022-10-26T08:10:47;95049.50;;;25.05;46.80
9774;BME280;4926;42.670;23.316;2022-10-26T08:13:14;95058.47;;;25.06;47.33
9774;BME280;4926;42.670;23.316;2022-10-26T08:15:40;95042.66;;;25.67;46.20
9774;BME280;4926;42.670;23.316;2022-10-26T08:18:10;95052.13;;;25.24;47.30
9774;BME280;4926;42.670;23.316;2022-10-26T08:20:36;95052.38;;;25.65;46.39
9774;BME280;4926;42.670;23.316;2022-10-26T08:23:07;95044.47;;;25.60;46.38
9774;BME280;4926;42.670;23.316;2022-10-26T08:25:33;95041.56;;;25.46;46.30
9774;BME280;4926;42.670;23.316;2022-10-26T08:28:01;95052.28;;;25.35;46.37
9774;BME280;4926;42.670;23.316;2022-10-26T08:30:28;95039.13;;;26.00;45.06
9774;BME280;4926;42.670;23.316;2022-10-26T08:33:02;95015.88;;;26.86;43.52
9774;BME280;4926;42.670;23.316;2022-10-26T08:35:30;95017.47;;;26.94;43.38
9774;BME280;4926;42.670;23.316;2022-10-26T08:37:59;95011.84;;;27.27;42.90
9774;BME280;4926;42.670;23.316;2022-10-26T08:40:30;95013.50;;;27.35;42.58
9774;BME280;4926;42.670;23.316;2022-10-26T08:43:04;95011.75;;;27.68;41.53
9774;BME280;4926;42.670;23.316;2022-10-26T08:45:38;95002.50;;;27.97;40.60
9774;BME280;4926;42.670;23.316;2022-10-26T08:48:12;95001.72;;;28.07;40.36
9774;BME280;4926;42.670;23.316;2022-10-26T08:50:44;95014.50;;;27.82;40.91
9774;BME280;4926;42.670;23.316;2022-10-26T08:53:17;95019.28;;;27.23;41.51
9774;BME280;4926;42.670;23.316;2022-10-26T08:55:52;95014.03;;;27.59;41.15
9774;BME280;4926;42.670;23.316;2022-10-26T08:58:26;95022.75;;;27.85;40.81
9774;BME280;4926;42.670;23.316;2022-10-26T09:00:54;95021.25;;;27.95;40.03
9774;BME280;4926;42.670;23.316;2022-10-26T09:03:20;95013.44;;;27.93;39.98
9774;BME280;4926;42.670;23.316;2022-10-26T09:06:11;95011.97;;;28.27;39.28
9774;BME280;4926;42.670;23.316;2022-10-26T09:08:46;95009.47;;;27.87;39.92
9774;BME280;4926;42.670;23.316;2022-10-26T09:11:47;95009.25;;;28.38;39.58
9774;BME280;4926;42.670;23.316;2022-10-26T09:14:19;94984.66;;;28.66;38.42
9774;BME280;4926;42.670;23.316;2022-10-26T09:16:55;94982.69;;;28.91;37.95
9774;BME280;4926;42.670;23.316;2022-10-26T09:19:50;94986.91;;;28.08;38.47
9774;BME280;4926;42.670;23.316;2022-10-26T09:22:31;95012.59;;;25.64;42.06
9774;BME280;4926;42.670;23.316;2022-10-26T09:25:10;95028.25;;;25.14;43.49
9774;BME280;4926;42.670;23.316;2022-10-26T09:27:44;95028.97;;;24.85;44.08
9774;BME280;4926;42.670;23.316;2022-10-26T09:30:18;95043.72;;;24.84;44.19
9774;BME280;4926;42.670;23.316;2022-10-26T09:32:46;95034.84;;;25.13;43.82
9774;BME280;4926;42.670;23.316;2022-10-26T09:35:17;95039.97;;;25.71;42.70
9774;BME280;4926;42.670;23.316;2022-10-26T09:37:48;95022.66;;;26.19;41.63
9774;BME280;4926;42.670;23.316;2022-10-26T09:40:21;95015.94;;;26.13;41.05
9774;BME280;4926;42.670;23.316;2022-10-26T09:42:58;95033.63;;;24.40;43.79
9774;BME280;4926;42.670;23.316;2022-10-26T09:45:29;95036.44;;;24.24;44.33
9774;BME280;4926;42.670;23.316;2022-10-26T09:48:03;95029.44;;;24.68;43.33
9774;BME280;4926;42.670;23.316;2022-10-26T09:50:33;95013.13;;;24.68;41.95
9774;BME280;4926;42.670;23.316;2022-10-26T09:53:01;95032.75;;;24.36;43.01
9774;BME280;4926;42.670;23.316;2022-10-26T09:55:40;95022.38;;;25.12;42.28
9774;BME280;4926;42.670;23.316;2022-10-26T09:58:12;95013.97;;;25.24;41.82
9774;BME280;4926;42.670;23.316;2022-10-26T10:00:45;95004.31;;;25.57;40.91
9774;BME280;4926;42.670;23.316;2022-10-26T10:03:17;94984.09;;;26.24;39.40
9774;BME280;4926;42.670;23.316;2022-10-26T10:05:45;94979.00;;;26.66;38.63
9774;BME280;4926;42.670;23.316;2022-10-26T10:08:20;94965.50;;;27.48;37.40
9774;BME280;4926;42.670;23.316;2022-10-26T10:10:57;94944.69;;;28.37;35.58
9774;BME280;4926;42.670;23.316;2022-10-26T10:13:28;94952.34;;;27.79;36.67
9774;BME280;4926;42.670;23.316;2022-10-26T10:16:04;94953.94;;;27.87;36.28
9774;BME280;4926;42.670;23.316;2022-10-26T10:18:32;94946.94;;;27.93;36.10
9774;BME280;4926;42.670;23.316;2022-10-26T10:20:59;94944.91;;;27.76;36.65
9774;BME280;4926;42.670;23.316;2022-10-26T10:23:30;94956.34;;;27.16;37.73
9774;BME280;4926;42.670;23.316;2022-10-26T10:25:59;94954.50;;;26.73;38.28
9774;BME280;4926;42.670;23.316;2022-10-26T10:28:27;94964.09;;;25.80;39.63
9774;BME280;4926;42.670;23.316;2022-10-26T10:30:55;94967.25;;;25.22;40.51
9774;BME280;4926;42.670;23.316;2022-10-26T10:33:35;94971.00;;;24.62;41.51
9774;BME280;4926;42.670;23.316;2022-10-26T10:36:06;94984.53;;;23.72;42.65
9774;BME280;4926;42.670;23.316;2022-10-26T10:38:37;94997.13;;;23.26;44.52
9774;BME280;4926;42.670;23.316;2022-10-26T10:41:05;95000.97;;;22.90;45.35
9774;BME280;4926;42.670;23.316;2022-10-26T10:43:45;95004.81;;;22.55;46.37
9774;BME280;4926;42.670;23.316;2022-10-26T10:46:17;95002.31;;;22.34;47.02
9774;BME280;4926;42.670;23.316;2022-10-26T10:48:46;95006.25;;;22.21;47.70
9774;BME280;4926;42.670;23.316;2022-10-26T10:51:18;95001.59;;;22.06;48.22
9774;BME280;4926;42.670;23.316;2022-10-26T10:53:49;95004.31;;;22.06;48.32
9774;BME280;4926;42.670;23.316;2022-10-26T10:56:37;95011.63;;;21.90;48.72
9774;BME280;4926;42.670;23.316;2022-10-26T10:59:32;95012.22;;;21.71;48.98
9774;BME280;4926;42.670;23.316;2022-10-26T11:02:33;95016.19;;;21.74;48.96
9774;BME280;4926;42.670;23.316;2022-10-26T11:05:19;95015.34;;;21.58;49.09
9774;BME280;4926;42.670;23.316;2022-10-26T11:07:54;95004.31;;;21.51;49.62
9774;BME280;4926;42.670;23.316;2022-10-26T11:10:34;95010.41;;;21.48;49.81
9774;BME280;4926;42.670;23.316;2022-10-26T11:13:06;95007.84;;;21.39;50.09
9774;BME280;4926;42.670;23.316;2022-10-26T11:15:41;95012.13;;;21.40;50.31
9774;BME280;4926;42.670;23.316;2022-10-26T11:18:13;95004.44;;;21.42;49.55
9774;BME280;4926;42.670;23.316;2022-10-26T11:20:45;95007.50;;;21.41;49.63
9774;BME280;4926;42.670;23.316;2022-10-26T11:23:19;95011.22;;;21.48;49.41
9774;BME280;4926;42.670;23.316;2022-10-26T11:25:50;94995.72;;;21.49;49.26
9774;BME280;4926;42.670;23.316;2022-10-26T11:28:26;94997.41;;;21.53;49.22
9774;BME280;4926;42.670;23.316;2022-10-26T11:31:02;95006.97;;;21.63;48.90
9774;BME280;4926;42.670;23.316;2022-10-26T11:33:44;94988.34;;;21.61;47.89
9774;BME280;4926;42.670;23.316;2022-10-26T11:36:17;94999.97;;;21.62;47.99
9774;BME280;4926;42.670;23.316;2022-10-26T11:38:48;94996.56;;;21.65;47.34
9774;BME280;4926;42.670;23.316;2022-10-26T11:41:21;94979.16;;;21.66;46.92
9774;BME280;4926;42.670;23.316;2022-10-26T11:43:55;94974.97;;;21.68;46.98
9774;BME280;4926;42.670;23.316;2022-10-26T11:46:31;94976.66;;;21.73;46.77
9774;BME280;4926;42.670;23.316;2022-10-26T11:49:05;94965.00;;;21.57;46.46
9774;BME280;4926;42.670;23.316;2022-10-26T11:51:45;94973.06;;;21.69;46.17
9774;BME280;4926;42.670;23.316;2022-10-26T11:54:20;94975.75;;;21.81;45.92
9774;BME280;4926;42.670;23.316;2022-10-26T11:56:52;94961.75;;;21.79;45.33
9774;BME280;4926;42.670;23.316;2022-10-26T11:59:23;94950.38;;;21.89;44.82
9774;BME280;4926;42.670;23.316;2022-10-26T12:01:57;94950.19;;;21.82;45.10
9774;BME280;4926;42.670;23.316;2022-10-26T12:04:29;94942.44;;;21.80;44.55
9774;BME280;4926;42.670;23.316;2022-10-26T12:06:58;94953.63;;;21.79;44.88
9774;BME280;4926;42.670;23.316;2022-10-26T12:09:30;94949.44;;;21.81;44.82
9774;BME280;4926;42.670;23.316;2022-10-26T12:12:03;94947.97;;;21.72;43.95
9774;BME280;4926;42.670;23.316;2022-10-26T12:14:40;94948.13;;;21.63;43.97
9774;BME280;4926;42.670;23.316;2022-10-26T12:17:13;94943.81;;;21.74;44.05
9774;BME280;4926;42.670;23.316;2022-10-26T12:19:46;94934.75;;;21.82;43.48
9774;BME280;4926;42.670;23.316;2022-10-26T12:22:17;94945.66;;;21.86;43.35
9774;BME280;4926;42.670;23.316;2022-10-26T12:24:45;94939.38;;;21.82;43.15
9774;BME280;4926;42.670;23.316;2022-10-26T12:27:33;94933.25;;;21.85;42.64
9774;BME280;4926;42.670;23.316;2022-10-26T12:30:23;94940.06;;;21.79;42.60
9774;BME280;4926;42.670;23.316;2022-10-26T12:32:56;94928.53;;;21.82;42.31
9774;BME280;4926;42.670;23.316;2022-10-26T12:35:43;94933.94;;;21.82;42.44
9774;BME280;4926;42.670;23.316;2022-10-26T12:41:30;94938.78;;;21.88;42.84
9774;BME280;4926;42.670;23.316;2022-10-26T12:44:01;94931.06;;;21.90;42.37
9774;BME280;4926;42.670;23.316;2022-10-26T12:46:44;94934.84;;;22.01;42.16
9774;BME280;4926;42.670;23.316;2022-10-26T12:52:47;94928.88;;;21.96;42.03
9774;BME280;4926;42.670;23.316;2022-10-26T12:58:59;94932.56;;;21.88;41.97
9774;BME280;4926;42.670;23.316;2022-10-26T13:04:47;94926.69;;;21.86;40.92
9774;BME280;4926;42.670;23.316;2022-10-26T13:07:20;94908.78;;;21.81;40.39
9774;BME280;4926;42.670;23.316;2022-10-26T13:09:58;94920.84;;;21.84;40.16
9774;BME280;4926;42.670;23.316;2022-10-26T13:12:28;94926.69;;;21.86;40.08
9774;BME280;4926;42.670;23.316;2022-10-26T13:15:04;94930.22;;;21.86;39.06
9774;BME280;4926;42.670;23.316;2022-10-26T13:17:33;94917.78;;;21.85;38.90
9774;BME280;4926;42.670;23.316;2022-10-26T13:20:02;94923.19;;;21.85;39.01
9774;BME280;4926;42.670;23.316;2022-10-26T13:22:31;94915.84;;;21.86;38.36
9774;BME280;4926;42.670;23.316;2022-10-26T13:25:03;94913.16;;;21.86;38.38
9774;BME280;4926;42.670;23.316;2022-10-26T13:27:42;94919.38;;;21.86;38.21
9774;BME280;4926;42.670;23.316;2022-10-26T13:30:17;94913.59;;;21.88;38.15
9774;BME280;4926;42.670;23.316;2022-10-26T13:32:49;94917.69;;;21.82;38.10
9774;BME280;4926;42.670;23.316;2022-10-26T13:35:19;94916.13;;;21.81;38.14
9774;BME280;4926;42.670;23.316;2022-10-26T13:37:49;94924.25;;;21.81;37.94
9774;BME280;4926;42.670;23.316;2022-10-26T13:40:19;94916.66;;;21.86;37.79
9774;BME280;4926;42.670;23.316;2022-10-26T13:42:49;94913.94;;;21.86;37.48
9774;BME280;4926;42.670;23.316;2022-10-26T13:45:20;94915.16;;;21.89;37.41
9774;BME280;4926;42.670;23.316;2022-10-26T13:47:52;94920.13;;;21.87;37.67
9774;BME280;4926;42.670;23.316;2022-10-26T13:50:24;94911.59;;;21.85;37.09
9774;BME280;4926;42.670;23.316;2022-10-26T13:52:53;94918.56;;;21.86;37.05
9774;BME280;4926;42.670;23.316;2022-10-26T13:55:28;94922.84;;;21.87;36.83
9774;BME280;4926;42.670;23.316;2022-10-26T13:58:17;94910.69;;;21.81;37.12
9774;BME280;4926;42.670;23.316;2022-10-26T14:01:12;94920.56;;;21.89;36.78
9774;BME280;4926;42.670;23.316;2022-10-26T14:03:45;94923.44;;;21.80;37.28